NWA6709 ROAH-VHHX
Flight info
| Callsign | NWA6709 |
|---|---|
| Flight time | N/A |
| Altitude | 38000 |
| Route | LAVON DCT KAORU Y74 BORDO R583 APU A1 ANPOG DCT CH |
| Aircraft | L101/H-SDFHIR/S |
Departure
| Time | 2026-04-23 15:45 |
|---|---|
| Airport | Naha International Airport (ROAH) |
Arrival
| Time | N/A |
|---|---|
| Airport | Hong Kong International Airport Kai Tak (VHHX) |
| Time | Latitude | Longitude | Altitude | Speed | Heading |
|---|---|---|---|---|---|
| 2026-04-23 15:12 | 26.21022 | 127.64960 | 27 ft | 0 kts | 88° |
| 2026-04-23 15:29 | 26.21022 | 127.64959 | 27 ft | 0 kts | 98° |
| 2026-04-23 15:29 | 26.21021 | 127.64957 | 27 ft | 0 kts | 108° |
| 2026-04-23 15:30 | 26.21022 | 127.64953 | 25 ft | 1 kts | 130° |
| 2026-04-23 15:30 | 26.21034 | 127.64943 | 27 ft | 3 kts | 176° |
| 2026-04-23 15:30 | 26.21037 | 127.64942 | 27 ft | 0 kts | 185° |
| 2026-04-23 15:37 | 26.21036 | 127.64942 | 27 ft | 1 kts | 185° |
| 2026-04-23 15:37 | 26.21018 | 127.64934 | 27 ft | 4 kts | 212° |
| 2026-04-23 15:37 | 26.20991 | 127.64898 | 25 ft | 8 kts | 243° |
| 2026-04-23 15:37 | 26.20970 | 127.64829 | 27 ft | 11 kts | 248° |
| 2026-04-23 15:38 | 26.20911 | 127.64764 | 27 ft | 14 kts | 204° |
| 2026-04-23 15:38 | 26.20809 | 127.64744 | 27 ft | 17 kts | 178° |
| 2026-04-23 15:38 | 26.20684 | 127.64750 | 26 ft | 19 kts | 176° |
| 2026-04-23 15:38 | 26.20544 | 127.64759 | 27 ft | 20 kts | 178° |
| 2026-04-23 15:39 | 26.20396 | 127.64766 | 26 ft | 23 kts | 178° |
| 2026-04-23 15:39 | 26.20248 | 127.64773 | 27 ft | 22 kts | 176° |
| 2026-04-23 15:39 | 26.20093 | 127.64778 | 27 ft | 23 kts | 178° |
| 2026-04-23 15:39 | 26.19927 | 127.64785 | 27 ft | 25 kts | 180° |
| 2026-04-23 15:40 | 26.19752 | 127.64797 | 27 ft | 22 kts | 179° |
| 2026-04-23 15:40 | 26.19602 | 127.64801 | 27 ft | 21 kts | 178° |
| 2026-04-23 15:40 | 26.19445 | 127.64811 | 27 ft | 24 kts | 176° |
| 2026-04-23 15:40 | 26.19296 | 127.64817 | 27 ft | 22 kts | 178° |
| 2026-04-23 15:41 | 26.19138 | 127.64823 | 27 ft | 23 kts | 177° |
| 2026-04-23 15:41 | 26.18971 | 127.64829 | 27 ft | 25 kts | 178° |
| 2026-04-23 15:41 | 26.18797 | 127.64835 | 26 ft | 25 kts | 177° |
| 2026-04-23 15:41 | 26.18632 | 127.64848 | 27 ft | 24 kts | 178° |
| 2026-04-23 15:42 | 26.18465 | 127.64855 | 27 ft | 24 kts | 178° |
| 2026-04-23 15:42 | 26.18326 | 127.64861 | 27 ft | 11 kts | 179° |
| 2026-04-23 15:42 | 26.18256 | 127.64816 | 26 ft | 14 kts | 242° |
| 2026-04-23 15:42 | 26.18245 | 127.64703 | 31 ft | 15 kts | 285° |
| 2026-04-23 15:43 | 26.18319 | 127.64656 | 26 ft | 13 kts | 353° |
| 2026-04-23 15:43 | 26.18343 | 127.64653 | 27 ft | 0 kts | 355° |
| 2026-04-23 15:45 | 26.18389 | 127.64650 | 27 ft | 29 kts | 357° |
| 2026-04-23 15:45 | 26.18928 | 127.64618 | 29 ft | 123 kts | 359° |
| 2026-04-23 15:45 | 26.20055 | 127.64598 | 125 ft | 191 kts | 359° |
| 2026-04-23 15:45 | 26.21404 | 127.64587 | 1208 ft | 196 kts | 358° |
| 2026-04-23 15:46 | 26.22841 | 127.64491 | 2150 ft | 218 kts | 349° |
| 2026-04-23 15:46 | 26.24298 | 127.63958 | 3047 ft | 222 kts | 333° |
| 2026-04-23 15:46 | 26.25668 | 127.63152 | 4089 ft | 222 kts | 327° |
| 2026-04-23 15:46 | 26.27078 | 127.62372 | 5277 ft | 231 kts | 330° |
| 2026-04-23 15:47 | 26.28597 | 127.61642 | 6464 ft | 246 kts | 331° |
| 2026-04-23 15:47 | 26.30219 | 127.60852 | 7249 ft | 258 kts | 330° |
| 2026-04-23 15:47 | 26.31850 | 127.59978 | 7808 ft | 261 kts | 327° |
| 2026-04-23 15:47 | 26.33445 | 127.59054 | 8371 ft | 262 kts | 326° |
| 2026-04-23 15:48 | 26.35066 | 127.58087 | 8979 ft | 269 kts | 326° |
| 2026-04-23 15:48 | 26.36650 | 127.56941 | 9549 ft | 271 kts | 311° |
| 2026-04-23 15:48 | 26.37656 | 127.55238 | 10079 ft | 261 kts | 282° |
| 2026-04-23 15:48 | 26.37742 | 127.53269 | 10625 ft | 255 kts | 256° |
| 2026-04-23 15:49 | 26.37057 | 127.51393 | 10948 ft | 271 kts | 239° |
| 2026-04-23 15:49 | 26.35876 | 127.49649 | 11081 ft | 294 kts | 229° |
| 2026-04-23 15:49 | 26.34328 | 127.48046 | 11202 ft | 314 kts | 221° |
| 2026-04-23 15:49 | 26.32508 | 127.46567 | 11325 ft | 332 kts | 216° |
| 2026-04-23 15:50 | 26.30505 | 127.45172 | 11453 ft | 347 kts | 213° |
| 2026-04-23 15:50 | 26.28401 | 127.43812 | 11577 ft | 361 kts | 213° |
| 2026-04-23 15:50 | 26.26182 | 127.42410 | 11814 ft | 369 kts | 212° |
| 2026-04-23 15:50 | 26.23945 | 127.41020 | 12400 ft | 368 kts | 212° |
| 2026-04-23 15:51 | 26.21713 | 127.39581 | 12781 ft | 371 kts | 217° |
| 2026-04-23 15:51 | 26.19827 | 127.37649 | 13253 ft | 368 kts | 235° |
| 2026-04-23 15:51 | 26.18677 | 127.35110 | 13637 ft | 371 kts | 253° |
| 2026-04-23 15:51 | 26.18166 | 127.32307 | 14187 ft | 371 kts | 261° |
| 2026-04-23 15:52 | 26.17806 | 127.29451 | 14634 ft | 374 kts | 261° |
| 2026-04-23 15:52 | 26.17450 | 127.26573 | 15126 ft | 376 kts | 261° |
| 2026-04-23 15:52 | 26.17141 | 127.23671 | 15587 ft | 379 kts | 263° |
| 2026-04-23 15:52 | 26.16935 | 127.20732 | 16024 ft | 383 kts | 265° |
| 2026-04-23 15:53 | 26.16810 | 127.17766 | 16514 ft | 385 kts | 266° |
| 2026-04-23 15:53 | 26.16716 | 127.14779 | 16992 ft | 386 kts | 266° |
| 2026-04-23 15:53 | 26.16639 | 127.11765 | 17312 ft | 393 kts | 267° |
| 2026-04-23 15:53 | 26.16577 | 127.08733 | 17850 ft | 394 kts | 266° |
| 2026-04-23 15:54 | 26.16526 | 127.05706 | 18389 ft | 395 kts | 267° |
| 2026-04-23 15:54 | 26.16466 | 127.02628 | 18753 ft | 398 kts | 266° |
| 2026-04-23 15:54 | 26.16356 | 126.99550 | 19119 ft | 401 kts | 266° |
| 2026-04-23 15:54 | 26.16256 | 126.96456 | 19572 ft | 400 kts | 266° |
| 2026-04-23 15:55 | 26.16183 | 126.93343 | 19936 ft | 402 kts | 266° |
| 2026-04-23 15:55 | 26.16121 | 126.90218 | 20223 ft | 407 kts | 266° |
| 2026-04-23 15:55 | 26.16049 | 126.87058 | 20712 ft | 409 kts | 266° |
| 2026-04-23 15:55 | 26.15986 | 126.83891 | 21186 ft | 410 kts | 266° |
| 2026-04-23 15:56 | 26.15927 | 126.80704 | 21628 ft | 412 kts | 266° |
| 2026-04-23 15:56 | 26.15866 | 126.77494 | 22009 ft | 415 kts | 266° |
| 2026-04-23 15:56 | 26.15798 | 126.74275 | 22408 ft | 418 kts | 266° |
| 2026-04-23 15:56 | 26.15726 | 126.71032 | 22813 ft | 420 kts | 266° |
| 2026-04-23 15:57 | 26.15652 | 126.67809 | 23241 ft | 422 kts | 266° |
| 2026-04-23 15:57 | 26.15577 | 126.64536 | 23675 ft | 423 kts | 266° |
| 2026-04-23 15:57 | 26.15499 | 126.61246 | 24059 ft | 426 kts | 266° |
| 2026-04-23 15:57 | 26.15419 | 126.57935 | 24428 ft | 429 kts | 266° |
| 2026-04-23 15:58 | 26.15341 | 126.54608 | 24797 ft | 431 kts | 266° |
| 2026-04-23 15:58 | 26.15263 | 126.51260 | 25109 ft | 436 kts | 266° |
| 2026-04-23 15:58 | 26.15181 | 126.47859 | 25251 ft | 443 kts | 266° |
| 2026-04-23 15:58 | 26.15096 | 126.44398 | 25378 ft | 450 kts | 266° |
| 2026-04-23 15:59 | 26.15010 | 126.40889 | 25499 ft | 458 kts | 266° |
| 2026-04-23 15:59 | 26.14922 | 126.37317 | 25617 ft | 465 kts | 266° |
| 2026-04-23 15:59 | 26.14834 | 126.33714 | 25999 ft | 465 kts | 266° |
| 2026-04-23 15:59 | 26.14747 | 126.30109 | 26464 ft | 464 kts | 266° |
| 2026-04-23 16:00 | 26.14658 | 126.26518 | 26964 ft | 463 kts | 266° |
| 2026-04-23 16:00 | 26.14565 | 126.22934 | 27472 ft | 463 kts | 266° |
| 2026-04-23 16:00 | 26.14435 | 126.19363 | 28037 ft | 461 kts | 265° |
| 2026-04-23 16:00 | 26.14250 | 126.15808 | 28560 ft | 460 kts | 264° |
| 2026-04-23 16:01 | 26.14108 | 126.13455 | 28930 ft | 459 kts | 264° |
| 2026-04-23 16:01 | 26.13832 | 126.08774 | 29620 ft | 458 kts | 265° |
| 2026-04-23 16:01 | 26.13645 | 126.05237 | 30169 ft | 456 kts | 265° |
| 2026-04-23 16:01 | 26.13470 | 126.01721 | 30704 ft | 454 kts | 265° |
| 2026-04-23 16:02 | 26.13295 | 125.98218 | 31293 ft | 450 kts | 265° |
| 2026-04-23 16:02 | 26.13178 | 125.95920 | 31652 ft | 448 kts | 265° |
| 2026-04-23 16:02 | 26.13002 | 125.92480 | 32302 ft | 443 kts | 265° |
| 2026-04-23 16:02 | 26.12826 | 125.89065 | 32872 ft | 440 kts | 265° |
| 2026-04-23 16:03 | 26.12655 | 125.85691 | 33494 ft | 436 kts | 265° |
| 2026-04-23 16:03 | 26.12482 | 125.82332 | 34096 ft | 431 kts | 265° |
| 2026-04-23 16:03 | 26.12307 | 125.79013 | 34645 ft | 428 kts | 265° |
| 2026-04-23 16:03 | 26.12132 | 125.75709 | 35175 ft | 426 kts | 265° |
| 2026-04-23 16:04 | 26.11958 | 125.72422 | 35567 ft | 428 kts | 265° |
| 2026-04-23 16:04 | 26.11781 | 125.69101 | 35748 ft | 430 kts | 265° |
| 2026-04-23 16:04 | 26.11606 | 125.65780 | 35819 ft | 430 kts | 265° |
| 2026-04-23 16:05 | 26.11254 | 125.59158 | 35867 ft | 427 kts | 265° |
| 2026-04-23 16:05 | 26.10898 | 125.52605 | 35871 ft | 427 kts | 265° |
| 2026-04-23 16:06 | 26.10543 | 125.46004 | 35883 ft | 426 kts | 265° |
| 2026-04-23 16:06 | 26.10181 | 125.39433 | 35880 ft | 426 kts | 265° |
| 2026-04-23 16:07 | 26.09820 | 125.32860 | 35885 ft | 426 kts | 265° |
| 2026-04-23 16:07 | 26.09452 | 125.26273 | 35881 ft | 426 kts | 265° |
| 2026-04-23 16:08 | 26.09084 | 125.19689 | 35884 ft | 426 kts | 265° |
| 2026-04-23 16:08 | 26.08714 | 125.13161 | 35880 ft | 425 kts | 265° |
| 2026-04-23 16:09 | 26.08340 | 125.06589 | 35881 ft | 425 kts | 265° |
| 2026-04-23 16:09 | 26.07962 | 125.00024 | 35875 ft | 426 kts | 265° |
| 2026-04-23 16:10 | 26.07580 | 124.93449 | 35886 ft | 425 kts | 265° |
| 2026-04-23 16:10 | 26.07197 | 124.86874 | 35880 ft | 425 kts | 265° |
| 2026-04-23 16:11 | 26.06813 | 124.80338 | 35884 ft | 426 kts | 265° |
| 2026-04-23 16:11 | 26.06419 | 124.73770 | 35881 ft | 426 kts | 264° |
| 2026-04-23 16:12 | 26.06031 | 124.67191 | 35882 ft | 426 kts | 264° |
| 2026-04-23 16:12 | 26.05633 | 124.60614 | 35881 ft | 426 kts | 264° |
| 2026-04-23 16:13 | 26.05232 | 124.54024 | 35878 ft | 427 kts | 264° |
| 2026-04-23 16:13 | 26.04632 | 124.44147 | 35885 ft | 427 kts | 264° |
| 2026-04-23 16:14 | 26.04226 | 124.37563 | 35876 ft | 427 kts | 264° |
| 2026-04-23 16:14 | 26.03810 | 124.30962 | 35884 ft | 428 kts | 264° |
| 2026-04-23 16:15 | 26.03400 | 124.24408 | 35875 ft | 428 kts | 264° |
| 2026-04-23 16:15 | 26.02988 | 124.17815 | 35884 ft | 428 kts | 264° |
| 2026-04-23 16:16 | 26.02561 | 124.11198 | 35883 ft | 429 kts | 264° |
| 2026-04-23 16:16 | 26.02136 | 124.04588 | 35887 ft | 428 kts | 264° |
| 2026-04-23 16:17 | 26.00814 | 123.98188 | 35912 ft | 425 kts | 250° |
| 2026-04-23 16:17 | 25.98807 | 123.91977 | 35897 ft | 427 kts | 252° |
| 2026-04-23 16:18 | 25.96942 | 123.85752 | 35889 ft | 427 kts | 251° |
| 2026-04-23 16:18 | 25.94940 | 123.79526 | 35891 ft | 427 kts | 250° |
| 2026-04-23 16:19 | 25.92907 | 123.73315 | 35890 ft | 427 kts | 250° |
| 2026-04-23 16:19 | 25.90873 | 123.67108 | 35890 ft | 428 kts | 250° |
| 2026-04-23 16:20 | 25.88826 | 123.60906 | 35901 ft | 427 kts | 250° |
| 2026-04-23 16:20 | 25.86764 | 123.54712 | 35900 ft | 428 kts | 250° |
| 2026-04-23 16:21 | 25.84698 | 123.48526 | 35899 ft | 427 kts | 250° |
| 2026-04-23 16:21 | 25.82635 | 123.42332 | 35900 ft | 427 kts | 250° |
| 2026-04-23 16:22 | 25.80594 | 123.36184 | 35898 ft | 428 kts | 250° |
| 2026-04-23 16:22 | 25.78523 | 123.29985 | 35901 ft | 429 kts | 250° |
| 2026-04-23 16:23 | 25.76448 | 123.23780 | 35898 ft | 429 kts | 250° |
| 2026-04-23 16:23 | 25.74372 | 123.17579 | 35897 ft | 429 kts | 250° |
| 2026-04-23 16:24 | 25.72296 | 123.11376 | 35902 ft | 429 kts | 250° |
| 2026-04-23 16:24 | 25.70211 | 123.05165 | 35897 ft | 429 kts | 250° |
| 2026-04-23 16:25 | 25.68135 | 122.98999 | 35898 ft | 429 kts | 250° |
| 2026-04-23 16:25 | 25.66025 | 122.92766 | 35914 ft | 429 kts | 250° |
| 2026-04-23 16:26 | 25.63945 | 122.86609 | 35917 ft | 430 kts | 250° |
| 2026-04-23 16:26 | 25.61833 | 122.80415 | 35917 ft | 430 kts | 250° |
| 2026-04-23 16:27 | 25.59725 | 122.74224 | 35916 ft | 429 kts | 250° |
| 2026-04-23 16:27 | 25.57621 | 122.68040 | 35919 ft | 429 kts | 250° |
| 2026-04-23 16:28 | 25.55514 | 122.61859 | 35913 ft | 429 kts | 250° |
| 2026-04-23 16:28 | 25.53403 | 122.55687 | 35915 ft | 429 kts | 250° |
| 2026-04-23 16:29 | 25.51268 | 122.49516 | 35920 ft | 429 kts | 249° |
| 2026-04-23 16:29 | 25.49126 | 122.43344 | 35931 ft | 428 kts | 252° |
| 2026-04-23 16:30 | 25.47226 | 122.37135 | 35923 ft | 429 kts | 252° |
| 2026-04-23 16:30 | 25.45242 | 122.30909 | 35931 ft | 428 kts | 251° |
| 2026-04-23 16:31 | 25.43225 | 122.24699 | 35924 ft | 429 kts | 251° |
| 2026-04-23 16:31 | 25.41156 | 122.18541 | 35929 ft | 429 kts | 250° |
| 2026-04-23 16:32 | 25.38986 | 122.12386 | 35922 ft | 429 kts | 250° |
| 2026-04-23 16:32 | 25.36832 | 122.06230 | 35928 ft | 429 kts | 250° |
| 2026-04-23 16:33 | 25.34678 | 122.00083 | 35925 ft | 429 kts | 250° |
| 2026-04-23 16:33 | 25.32527 | 121.93974 | 35924 ft | 428 kts | 250° |
| 2026-04-23 16:34 | 25.30367 | 121.87841 | 35926 ft | 428 kts | 250° |
| 2026-04-23 16:34 | 25.28202 | 121.81699 | 35929 ft | 428 kts | 250° |
| 2026-04-23 16:35 | 25.26031 | 121.75559 | 35923 ft | 429 kts | 250° |
| 2026-04-23 16:35 | 25.23856 | 121.69413 | 35932 ft | 429 kts | 250° |
| 2026-04-23 16:36 | 25.21693 | 121.63316 | 35924 ft | 429 kts | 250° |
| 2026-04-23 16:36 | 25.19516 | 121.57172 | 35927 ft | 429 kts | 249° |
| 2026-04-23 16:37 | 25.16499 | 121.51505 | 35925 ft | 432 kts | 233° |
| 2026-04-23 16:37 | 25.12667 | 121.46369 | 35939 ft | 434 kts | 236° |
| 2026-04-23 16:38 | 25.08991 | 121.41090 | 35925 ft | 434 kts | 234° |
| 2026-04-23 16:38 | 25.05140 | 121.35957 | 35933 ft | 435 kts | 233° |
| 2026-04-23 16:39 | 25.01226 | 121.30867 | 35930 ft | 435 kts | 233° |
| 2026-04-23 16:39 | 24.97305 | 121.25767 | 35936 ft | 436 kts | 232° |
| 2026-04-23 16:40 | 24.93393 | 121.20706 | 35934 ft | 436 kts | 232° |
| 2026-04-23 16:40 | 24.89454 | 121.15623 | 35934 ft | 436 kts | 232° |
| 2026-04-23 16:41 | 24.85514 | 121.10541 | 35935 ft | 436 kts | 232° |
| 2026-04-23 16:41 | 24.81559 | 121.05453 | 35935 ft | 436 kts | 232° |
| 2026-04-23 16:42 | 24.77606 | 121.00387 | 35935 ft | 436 kts | 232° |
| 2026-04-23 16:42 | 24.73686 | 120.95355 | 35934 ft | 436 kts | 232° |
| 2026-04-23 16:43 | 24.69741 | 120.90289 | 35945 ft | 436 kts | 232° |
| 2026-04-23 16:43 | 24.65793 | 120.85219 | 35946 ft | 436 kts | 232° |
| 2026-04-23 16:44 | 24.61843 | 120.80154 | 35948 ft | 436 kts | 232° |
| 2026-04-23 16:44 | 24.57901 | 120.75098 | 35955 ft | 436 kts | 232° |
| 2026-04-23 16:45 | 24.53797 | 120.70172 | 35957 ft | 438 kts | 229° |
| 2026-04-23 16:45 | 24.49573 | 120.65389 | 35954 ft | 438 kts | 229° |
| 2026-04-23 16:46 | 24.45362 | 120.60558 | 35955 ft | 438 kts | 229° |
| 2026-04-23 16:46 | 24.41139 | 120.55729 | 35953 ft | 439 kts | 229° |
| 2026-04-23 16:47 | 24.36891 | 120.50888 | 35957 ft | 439 kts | 229° |
| 2026-04-23 16:47 | 24.32649 | 120.46058 | 35955 ft | 440 kts | 229° |
| 2026-04-23 16:48 | 24.28416 | 120.41248 | 35954 ft | 440 kts | 229° |
| 2026-04-23 16:48 | 24.24164 | 120.36415 | 35955 ft | 441 kts | 229° |
| 2026-04-23 16:49 | 24.19900 | 120.31587 | 35953 ft | 440 kts | 229° |
| 2026-04-23 16:49 | 24.16356 | 120.27581 | 35958 ft | 440 kts | 229° |
| 2026-04-23 16:50 | 24.11394 | 120.21957 | 35950 ft | 441 kts | 229° |
| 2026-04-23 16:50 | 24.07821 | 120.17917 | 35946 ft | 441 kts | 229° |
| 2026-04-23 16:51 | 24.03549 | 120.13086 | 35946 ft | 441 kts | 229° |
| 2026-04-23 16:51 | 23.99299 | 120.08286 | 35937 ft | 442 kts | 229° |
| 2026-04-23 16:52 | 23.95012 | 120.03468 | 35939 ft | 442 kts | 229° |
| 2026-04-23 16:52 | 23.90729 | 119.98643 | 35924 ft | 442 kts | 229° |
| 2026-04-23 16:53 | 23.86443 | 119.93820 | 35931 ft | 442 kts | 229° |
| 2026-04-23 16:53 | 23.82162 | 119.89005 | 35913 ft | 442 kts | 229° |
| 2026-04-23 16:54 | 23.77908 | 119.84222 | 35922 ft | 442 kts | 229° |
| 2026-04-23 16:54 | 23.73617 | 119.79407 | 35913 ft | 442 kts | 229° |
| 2026-04-23 16:55 | 23.69324 | 119.74594 | 35907 ft | 443 kts | 229° |
| 2026-04-23 16:55 | 23.65023 | 119.69780 | 35908 ft | 443 kts | 229° |
| 2026-04-23 16:56 | 23.60778 | 119.64908 | 35895 ft | 442 kts | 234° |
| 2026-04-23 16:56 | 23.57381 | 119.59370 | 35918 ft | 440 kts | 239° |
| 2026-04-23 16:57 | 23.54007 | 119.53785 | 35905 ft | 441 kts | 238° |
| 2026-04-23 16:57 | 23.50657 | 119.48225 | 35909 ft | 441 kts | 239° |
| 2026-04-23 16:58 | 23.47369 | 119.42576 | 35903 ft | 442 kts | 239° |
| 2026-04-23 16:58 | 23.44078 | 119.36924 | 35912 ft | 442 kts | 239° |
| 2026-04-23 16:59 | 23.40781 | 119.31265 | 35904 ft | 442 kts | 239° |
| 2026-04-23 16:59 | 23.37488 | 119.25604 | 35910 ft | 442 kts | 239° |
| 2026-04-23 17:00 | 23.34193 | 119.19946 | 35909 ft | 443 kts | 239° |
| 2026-04-23 17:00 | 23.30893 | 119.14282 | 35910 ft | 443 kts | 239° |
| 2026-04-23 17:01 | 23.27608 | 119.08653 | 35919 ft | 444 kts | 239° |
| 2026-04-23 17:01 | 23.24289 | 119.02973 | 35915 ft | 444 kts | 239° |
| 2026-04-23 17:02 | 23.20971 | 118.97302 | 35915 ft | 444 kts | 239° |
| 2026-04-23 17:02 | 23.17650 | 118.91627 | 35917 ft | 445 kts | 239° |
| 2026-04-23 17:03 | 23.14323 | 118.85953 | 35918 ft | 445 kts | 239° |
| 2026-04-23 17:03 | 23.11012 | 118.80308 | 35915 ft | 445 kts | 239° |
| 2026-04-23 17:04 | 23.07686 | 118.74643 | 35918 ft | 445 kts | 239° |
| 2026-04-23 17:04 | 23.04349 | 118.68970 | 35923 ft | 445 kts | 239° |
| 2026-04-23 17:05 | 23.01009 | 118.63296 | 35930 ft | 446 kts | 239° |
| 2026-04-23 17:05 | 22.97670 | 118.57625 | 35928 ft | 446 kts | 239° |
| 2026-04-23 17:06 | 22.94413 | 118.51895 | 35925 ft | 446 kts | 239° |
| 2026-04-23 17:06 | 22.90997 | 118.46314 | 35921 ft | 446 kts | 237° |
| 2026-04-23 17:07 | 22.87559 | 118.40699 | 35916 ft | 447 kts | 238° |
| 2026-04-23 17:07 | 22.84183 | 118.35041 | 35917 ft | 447 kts | 239° |
| 2026-04-23 17:08 | 22.80797 | 118.29368 | 35922 ft | 447 kts | 239° |
| 2026-04-23 17:08 | 22.77410 | 118.23696 | 35922 ft | 448 kts | 239° |
| 2026-04-23 17:09 | 22.74038 | 118.18048 | 35917 ft | 449 kts | 239° |
| 2026-04-23 17:09 | 22.70646 | 118.12372 | 35918 ft | 449 kts | 238° |
| 2026-04-23 17:10 | 22.67240 | 118.06686 | 35919 ft | 450 kts | 239° |
| 2026-04-23 17:10 | 22.63829 | 118.00994 | 35923 ft | 451 kts | 238° |
| 2026-04-23 17:11 | 22.61378 | 117.94845 | 35858 ft | 446 kts | 262° |
| 2026-04-23 17:11 | 22.60635 | 117.88198 | 35946 ft | 448 kts | 259° |
| 2026-04-23 17:12 | 22.59514 | 117.81567 | 35924 ft | 448 kts | 261° |
| 2026-04-23 17:12 | 22.58751 | 117.74873 | 35928 ft | 448 kts | 263° |
| 2026-04-23 17:13 | 22.58148 | 117.68205 | 35922 ft | 448 kts | 264° |
| 2026-04-23 17:13 | 22.57540 | 117.61493 | 35929 ft | 448 kts | 264° |
| 2026-04-23 17:14 | 22.56940 | 117.54792 | 35931 ft | 447 kts | 264° |
| 2026-04-23 17:14 | 22.56353 | 117.48099 | 35929 ft | 447 kts | 264° |
| 2026-04-23 17:15 | 22.55763 | 117.41406 | 35926 ft | 446 kts | 263° |
| 2026-04-23 17:15 | 22.55165 | 117.34712 | 35925 ft | 446 kts | 263° |
| 2026-04-23 17:16 | 22.54572 | 117.28036 | 35928 ft | 446 kts | 263° |
| 2026-04-23 17:16 | 22.53978 | 117.21402 | 35925 ft | 445 kts | 263° |
| 2026-04-23 17:17 | 22.53379 | 117.14739 | 35931 ft | 445 kts | 263° |
| 2026-04-23 17:17 | 22.52776 | 117.08061 | 35923 ft | 445 kts | 263° |
| 2026-04-23 17:18 | 22.51867 | 116.98076 | 35925 ft | 444 kts | 263° |
| 2026-04-23 17:19 | 22.51263 | 116.91466 | 35927 ft | 444 kts | 263° |
| 2026-04-23 17:19 | 22.50652 | 116.84812 | 35926 ft | 444 kts | 263° |
| 2026-04-23 17:20 | 22.50038 | 116.78167 | 35923 ft | 444 kts | 263° |
| 2026-04-23 17:21 | 22.48805 | 116.64867 | 35929 ft | 444 kts | 263° |
| 2026-04-23 17:21 | 22.47873 | 116.54897 | 35925 ft | 444 kts | 263° |
| 2026-04-23 17:22 | 22.46935 | 116.44926 | 35931 ft | 444 kts | 263° |
| 2026-04-23 17:23 | 22.45986 | 116.34945 | 35935 ft | 445 kts | 263° |
| 2026-04-23 17:23 | 22.45346 | 116.28275 | 35577 ft | 450 kts | 263° |
| 2026-04-23 17:24 | 22.45025 | 116.24913 | 35064 ft | 448 kts | 263° |
| 2026-04-23 17:24 | 22.44709 | 116.21584 | 34548 ft | 443 kts | 263° |
| 2026-04-23 17:24 | 22.44081 | 116.15024 | 33549 ft | 435 kts | 263° |
| 2026-04-23 17:25 | 22.43457 | 116.08571 | 32544 ft | 428 kts | 263° |
| 2026-04-23 17:25 | 22.43147 | 116.05384 | 32052 ft | 424 kts | 263° |
| 2026-04-23 17:26 | 22.42537 | 115.99143 | 31046 ft | 416 kts | 263° |
| 2026-04-23 17:26 | 22.41935 | 115.92980 | 30046 ft | 408 kts | 263° |
| 2026-04-23 17:27 | 22.41339 | 115.86936 | 29039 ft | 400 kts | 263° |
| 2026-04-23 17:27 | 22.41045 | 115.83957 | 28538 ft | 397 kts | 263° |
| 2026-04-23 17:27 | 22.40754 | 115.81003 | 28037 ft | 394 kts | 263° |
| 2026-04-23 17:27 | 22.40462 | 115.78055 | 27484 ft | 397 kts | 264° |
| 2026-04-23 17:28 | 22.40165 | 115.75060 | 27005 ft | 406 kts | 264° |
| 2026-04-23 17:28 | 22.39866 | 115.72043 | 26525 ft | 411 kts | 264° |
| 2026-04-23 17:28 | 22.39565 | 115.68984 | 26113 ft | 408 kts | 264° |
| 2026-04-23 17:28 | 22.39264 | 115.65943 | 25738 ft | 405 kts | 264° |
| 2026-04-23 17:29 | 22.38963 | 115.62924 | 25354 ft | 403 kts | 264° |
| 2026-04-23 17:29 | 22.38663 | 115.59922 | 24987 ft | 401 kts | 264° |
| 2026-04-23 17:29 | 22.38066 | 115.53968 | 24238 ft | 396 kts | 264° |
| 2026-04-23 17:30 | 22.37869 | 115.52005 | 23985 ft | 394 kts | 264° |
| 2026-04-23 17:30 | 22.37178 | 115.45163 | 23106 ft | 389 kts | 264° |
| 2026-04-23 17:30 | 22.36885 | 115.42269 | 22726 ft | 387 kts | 264° |
| 2026-04-23 17:31 | 22.36593 | 115.39389 | 22354 ft | 384 kts | 264° |
| 2026-04-23 17:31 | 22.36302 | 115.36526 | 21980 ft | 382 kts | 264° |
| 2026-04-23 17:31 | 22.36013 | 115.33680 | 21602 ft | 380 kts | 264° |
| 2026-04-23 17:31 | 22.35723 | 115.30845 | 21223 ft | 378 kts | 264° |
| 2026-04-23 17:32 | 22.35436 | 115.28031 | 20847 ft | 376 kts | 264° |
| 2026-04-23 17:32 | 22.35153 | 115.25270 | 20477 ft | 373 kts | 264° |
| 2026-04-23 17:32 | 22.34868 | 115.22486 | 20091 ft | 371 kts | 264° |
| 2026-04-23 17:32 | 22.34584 | 115.19722 | 19720 ft | 369 kts | 264° |
| 2026-04-23 17:33 | 22.34301 | 115.16972 | 19350 ft | 367 kts | 264° |
| 2026-04-23 17:33 | 22.34020 | 115.14243 | 18963 ft | 365 kts | 264° |
| 2026-04-23 17:33 | 22.33740 | 115.11528 | 18594 ft | 363 kts | 264° |
| 2026-04-23 17:33 | 22.33460 | 115.08825 | 18219 ft | 361 kts | 264° |
| 2026-04-23 17:34 | 22.33184 | 115.06160 | 17833 ft | 349 kts | 264° |
| 2026-04-23 17:34 | 22.32920 | 115.03612 | 17456 ft | 334 kts | 263° |
| 2026-04-23 17:34 | 22.32413 | 114.98802 | 16711 ft | 314 kts | 263° |
| 2026-04-23 17:35 | 22.32165 | 114.96459 | 16339 ft | 315 kts | 263° |
| 2026-04-23 17:35 | 22.31751 | 114.92537 | 15709 ft | 316 kts | 263° |
| 2026-04-23 17:35 | 22.31425 | 114.89425 | 15210 ft | 313 kts | 263° |
| 2026-04-23 17:36 | 22.31181 | 114.87094 | 14834 ft | 311 kts | 263° |
| 2026-04-23 17:36 | 22.30938 | 114.84779 | 14459 ft | 310 kts | 263° |
| 2026-04-23 17:36 | 22.30695 | 114.82473 | 14072 ft | 308 kts | 263° |
| 2026-04-23 17:36 | 22.30456 | 114.80203 | 13699 ft | 300 kts | 263° |
| 2026-04-23 17:37 | 22.30222 | 114.77988 | 13325 ft | 292 kts | 263° |
| 2026-04-23 17:37 | 22.29993 | 114.75822 | 12951 ft | 289 kts | 263° |
| 2026-04-23 17:37 | 22.29535 | 114.71523 | 12200 ft | 287 kts | 263° |
| 2026-04-23 17:38 | 22.29385 | 114.70105 | 11945 ft | 286 kts | 263° |
| 2026-04-23 17:38 | 22.29158 | 114.67975 | 11574 ft | 285 kts | 263° |
| 2026-04-23 17:38 | 22.28933 | 114.65858 | 11191 ft | 283 kts | 263° |
| 2026-04-23 17:38 | 22.28710 | 114.63753 | 10818 ft | 281 kts | 263° |
| 2026-04-23 17:39 | 22.28487 | 114.61660 | 10444 ft | 280 kts | 263° |
| 2026-04-23 17:39 | 22.28193 | 114.58908 | 9940 ft | 278 kts | 263° |
| 2026-04-23 17:39 | 22.28043 | 114.57510 | 9691 ft | 277 kts | 263° |
| 2026-04-23 17:39 | 22.27823 | 114.55449 | 9318 ft | 275 kts | 263° |
| 2026-04-23 17:40 | 22.27607 | 114.53431 | 8944 ft | 274 kts | 263° |
| 2026-04-23 17:40 | 22.27388 | 114.51394 | 8563 ft | 272 kts | 263° |
| 2026-04-23 17:40 | 22.27172 | 114.49378 | 8291 ft | 267 kts | 263° |
| 2026-04-23 17:40 | 22.26958 | 114.47389 | 8137 ft | 267 kts | 263° |
| 2026-04-23 17:41 | 22.26742 | 114.45390 | 8077 ft | 267 kts | 263° |
| 2026-04-23 17:41 | 22.26311 | 114.41391 | 8041 ft | 268 kts | 263° |
| 2026-04-23 17:41 | 22.26096 | 114.39388 | 8038 ft | 268 kts | 263° |
| 2026-04-23 17:42 | 22.25664 | 114.35383 | 8039 ft | 269 kts | 263° |
| 2026-04-23 17:42 | 22.25447 | 114.33376 | 8039 ft | 269 kts | 263° |
| 2026-04-23 17:42 | 22.25230 | 114.31372 | 8036 ft | 269 kts | 263° |
| 2026-04-23 17:43 | 22.25016 | 114.29397 | 8041 ft | 269 kts | 263° |
| 2026-04-23 17:43 | 22.24797 | 114.27365 | 8037 ft | 269 kts | 263° |
| 2026-04-23 17:43 | 22.24583 | 114.25386 | 7989 ft | 270 kts | 263° |
| 2026-04-23 17:43 | 22.24363 | 114.23369 | 7876 ft | 268 kts | 263° |
| 2026-04-23 17:44 | 22.24146 | 114.21375 | 7852 ft | 267 kts | 263° |
| 2026-04-23 17:44 | 22.23928 | 114.19382 | 7840 ft | 268 kts | 263° |
| 2026-04-23 17:44 | 22.23502 | 114.15469 | 7838 ft | 256 kts | 263° |
| 2026-04-23 17:45 | 22.23291 | 114.13555 | 7841 ft | 257 kts | 263° |
| 2026-04-23 17:45 | 22.22868 | 114.09721 | 7769 ft | 259 kts | 263° |
| 2026-04-23 17:45 | 22.22658 | 114.07801 | 7562 ft | 254 kts | 263° |
| 2026-04-23 17:46 | 22.22255 | 114.04149 | 7133 ft | 242 kts | 263° |
| 2026-04-23 17:46 | 22.22054 | 114.02345 | 6943 ft | 242 kts | 262° |
| 2026-04-23 17:46 | 22.22150 | 114.00542 | 6661 ft | 243 kts | 289° |
| 2026-04-23 17:47 | 22.23040 | 113.99029 | 6397 ft | 239 kts | 319° |
| 2026-04-23 17:47 | 22.24495 | 113.98225 | 6212 ft | 237 kts | 349° |
| 2026-04-23 17:47 | 22.27561 | 113.99205 | 6144 ft | 239 kts | 35° |
| 2026-04-23 17:48 | 22.28884 | 114.00329 | 6160 ft | 246 kts | 39° |
| 2026-04-23 17:48 | 22.30188 | 114.01544 | 5731 ft | 252 kts | 41° |
| 2026-04-23 17:48 | 22.31471 | 114.02776 | 4981 ft | 235 kts | 41° |
| 2026-04-23 17:48 | 22.32646 | 114.03919 | 3915 ft | 220 kts | 41° |
| 2026-04-23 17:49 | 22.33584 | 114.05108 | 3128 ft | 202 kts | 68° |
| 2026-04-23 17:49 | 22.33623 | 114.06528 | 3159 ft | 174 kts | 107° |
| 2026-04-23 17:49 | 22.33147 | 114.07710 | 3613 ft | 177 kts | 115° |
| 2026-04-23 17:49 | 22.32761 | 114.09000 | 3963 ft | 185 kts | 96° |
| 2026-04-23 17:50 | 22.32847 | 114.10381 | 4183 ft | 185 kts | 82° |
| 2026-04-23 17:50 | 22.33486 | 114.13017 | 3558 ft | 179 kts | 73° |
| 2026-04-23 17:50 | 22.33848 | 114.14283 | 2878 ft | 175 kts | 72° |
| 2026-04-23 17:51 | 22.34228 | 114.15519 | 2090 ft | 168 kts | 72° |
| 2026-04-23 17:51 | 22.34380 | 114.16713 | 1533 ft | 156 kts | 91° |